Time;durP1;ratioP1;P1;durP2;ratioP2;P2;SDS_P1;SDS_P2;PMS_P1;PMS_P2;Temp;Humidity;BMP_temperature;BMP_pressure;BME280_temperature;BME280_humidity;BME280_pressure;Samples;Min_cycle;Max_cycle;Signal;HPM_P1;HPM_P2
2022/12/27 00:01:20;;;;;;;;;;;;;;;27.35;58.59;101313.38;5055945;28;70487;-34
2022/12/27 00:03:50;;;;;;;;;;;;;;;27.38;58.43;101318.41;5060088;28;65866;-34
2022/12/27 00:06:22;;;;;;;;;;;;;;;27.39;58.74;101321.94;5054143;28;69647;-34
2022/12/27 00:08:54;;;;;;;;;;;;;;;27.45;58.80;101331.97;5060157;28;67018;-35
2022/12/27 00:11:28;;;;;;;;;;;;;;;27.47;58.39;101327.25;5053992;28;69433;-34
2022/12/27 00:14:01;;;;;;;;;;;;;;;27.51;58.58;101328.53;5053950;28;66615;-34
2022/12/27 00:16:33;;;;;;;;;;;;;;;27.54;59.13;101333.53;5056430;28;69566;-34
2022/12/27 00:19:04;;;;;;;;;;;;;;;27.60;59.17;101332.78;5056519;28;66414;-35
2022/12/27 00:21:35;;;;;;;;;;;;;;;27.57;58.64;101337.72;5057487;28;70537;-33
2022/12/27 00:24:06;;;;;;;;;;;;;;;27.59;59.01;101341.91;5057809;28;66346;-33
2022/12/27 00:26:38;;;;;;;;;;;;;;;27.61;58.74;101345.25;5055129;28;69674;-35
2022/12/27 00:29:09;;;;;;;;;;;;;;;27.65;59.26;101355.66;5055523;28;66891;-36
2022/12/27 00:31:39;;;;;;;;;;;;;;;27.66;59.48;101354.63;5054564;28;69990;-33
2022/12/27 00:34:11;;;;;;;;;;;;;;;27.66;59.01;101362.72;5059277;28;66507;-34
2022/12/27 00:36:41;;;;;;;;;;;;;;;27.68;59.53;101360.69;5052971;28;68964;-36
2022/12/27 00:39:12;;;;;;;;;;;;;;;27.69;59.11;101356.94;5059748;28;64916;-34
2022/12/27 00:41:43;;;;;;;;;;;;;;;27.70;59.79;101361.34;5057833;28;68984;-34
2022/12/27 00:44:14;;;;;;;;;;;;;;;27.73;59.22;101367.19;5060051;28;66605;-36
2022/12/27 00:46:45;;;;;;;;;;;;;;;27.73;59.26;101374.44;5057083;28;69808;-34
2022/12/27 00:49:16;;;;;;;;;;;;;;;27.69;59.26;101386.59;5056962;28;66753;-35
2022/12/27 00:51:47;;;;;;;;;;;;;;;27.59;59.01;101395.81;5057098;28;70430;-35
2022/12/27 00:54:18;;;;;;;;;;;;;;;27.58;58.74;101393.28;5059558;28;66121;-35
2022/12/27 00:56:49;;;;;;;;;;;;;;;27.58;58.45;101402.22;5056520;28;69842;-34
2022/12/27 00:59:20;;;;;;;;;;;;;;;27.58;58.18;101399.53;5054955;28;65438;-36
2022/12/27 01:01:50;;;;;;;;;;;;;;;27.59;58.00;101403.91;5055736;28;69990;-35
2022/12/27 01:04:21;;;;;;;;;;;;;;;27.60;57.98;101413.66;5051697;28;65740;-36
2022/12/27 01:06:52;;;;;;;;;;;;;;;27.61;57.52;101409.13;5055650;28;67872;-34
2022/12/27 01:09:22;;;;;;;;;;;;;;;27.61;57.10;101418.03;5055623;28;66729;-34
2022/12/27 01:11:53;;;;;;;;;;;;;;;27.62;57.22;101422.38;5052951;28;70456;-34
2022/12/27 01:14:24;;;;;;;;;;;;;;;27.64;57.23;101416.81;5055546;28;65355;-34
2022/12/27 01:16:55;;;;;;;;;;;;;;;27.65;56.71;101420.34;5056218;28;70053;-34
2022/12/27 01:19:26;;;;;;;;;;;;;;;27.65;56.68;101423.88;5053177;28;65520;-34
2022/12/27 01:21:57;;;;;;;;;;;;;;;27.65;56.65;101426.56;5057106;28;69625;-34
2022/12/27 01:24:27;;;;;;;;;;;;;;;27.66;56.47;101417.44;5056216;28;66257;-34
2022/12/27 01:26:58;;;;;;;;;;;;;;;27.68;56.25;101430.75;5053148;28;70636;-34
2022/12/27 01:29:29;;;;;;;;;;;;;;;27.68;56.48;101430.75;5055803;28;64600;-34
2022/12/27 01:31:59;;;;;;;;;;;;;;;27.66;56.36;101422.00;5056847;28;70045;-36
2022/12/27 01:34:30;;;;;;;;;;;;;;;27.70;55.90;101426.03;5054268;28;66648;-34
2022/12/27 01:37:01;;;;;;;;;;;;;;;27.70;55.89;101432.25;5049431;28;69458;-38
2022/12/27 01:39:32;;;;;;;;;;;;;;;27.71;55.90;101419.59;5056308;28;67030;-34
2022/12/27 01:44:55;;;;;;;;;;;;;;;27.72;55.47;101427.50;5059535;28;66078;-35
2022/12/27 01:47:33;;;;;;;;;;;;;;;27.75;55.82;101434.38;5054904;28;70065;-35
2022/12/27 01:50:09;;;;;;;;;;;;;;;27.74;55.74;101430.00;5057653;28;66080;-34
2022/12/27 01:52:49;;;;;;;;;;;;;;;27.76;55.66;101426.09;5058628;28;70976;-34
2022/12/27 01:55:33;;;;;;;;;;;;;;;27.78;55.72;101436.72;5059418;28;66867;-35
2022/12/27 01:58:06;;;;;;;;;;;;;;;27.79;55.41;101438.38;5049653;28;70833;-35
2022/12/27 02:00:38;;;;;;;;;;;;;;;27.80;55.33;101434.69;5052394;28;65807;-36
2022/12/27 02:03:10;;;;;;;;;;;;;;;27.80;55.22;101435.53;5058268;28;69822;-34
2022/12/27 02:05:41;;;;;;;;;;;;;;;27.82;55.44;101435.34;5054266;28;66084;-34
2022/12/27 02:08:28;;;;;;;;;;;;;;;27.84;55.13;101444.09;5051574;28;70253;-35
2022/12/27 02:10:59;;;;;;;;;;;;;;;27.84;55.36;101436.00;5052137;28;65998;-34
2022/12/27 02:13:31;;;;;;;;;;;;;;;27.85;55.03;101443.06;5051132;28;69366;-34
2022/12/27 02:16:09;;;;;;;;;;;;;;;27.87;55.23;101445.56;5064427;27;66197;-34
2022/12/27 02:18:40;;;;;;;;;;;;;;;27.88;54.97;101448.06;5058765;28;69516;-36
2022/12/27 02:21:17;;;;;;;;;;;;;;;27.90;55.09;101454.13;5057292;28;66210;-35
2022/12/27 02:24:06;;;;;;;;;;;;;;;27.92;54.90;101449.38;5055751;28;70645;-33
2022/12/27 02:26:45;;;;;;;;;;;;;;;27.92;54.46;101449.38;5057621;28;66654;-34
2022/12/27 02:29:19;;;;;;;;;;;;;;;27.95;54.81;101443.63;5060845;28;69435;-34
2022/12/27 02:32:26;;;;;;;;;;;;;;;27.96;54.41;101450.66;5057755;28;66035;-34
2022/12/27 02:35:13;;;;;;;;;;;;;;;27.98;54.62;101453.19;5018732;28;69957;-35
2022/12/27 02:37:51;;;;;;;;;;;;;;;27.99;54.34;101455.69;5053773;28;66156;-36
2022/12/27 02:55:00;;;;;;;;;;;;;;;28.09;54.21;101419.53;5047692;28;65888;-35
2022/12/27 02:57:44;;;;;;;;;;;;;;;28.09;54.29;101422.22;5043181;28;69272;-37
2022/12/27 03:03:30;;;;;;;;;;;;;;;28.13;54.43;101423.50;5045760;28;69715;-34
2022/12/27 03:06:39;;;;;;;;;;;;;;;28.15;54.31;101410.66;5052960;28;65663;-35
2022/12/27 03:18:12;;;;;;;;;;;;;;;28.23;54.08;101422.19;5054734;28;66525;-35
2022/12/27 03:26:25;;;;;;;;;;;;;;;28.30;54.27;101411.44;5057328;28;70335;-35
2022/12/27 03:34:42;;;;;;;;;;;;;;;28.35;53.87;101421.69;5058469;28;66606;-35
2022/12/27 03:40:38;;;;;;;;;;;;;;;28.38;54.23;101416.75;5056531;28;66073;-36
2022/12/27 03:43:14;;;;;;;;;;;;;;;28.40;53.89;101409.28;5005308;28;70329;-35
2022/12/27 03:48:51;;;;;;;;;;;;;;;28.45;53.93;101409.59;5057409;28;69826;-34
2022/12/27 03:51:23;;;;;;;;;;;;;;;28.47;54.21;101404.84;5056131;28;66105;-37
2022/12/27 03:53:58;;;;;;;;;;;;;;;28.50;54.90;101399.06;5057196;28;70222;-35
2022/12/27 03:56:29;;;;;;;;;;;;;;;28.54;54.97;101398.69;5057470;28;67086;-35
2022/12/27 03:59:01;;;;;;;;;;;;;;;28.56;55.05;101392.06;5056896;28;70317;-35
2022/12/27 04:01:32;;;;;;;;;;;;;;;28.58;54.48;101391.84;5057088;28;66101;-35
2022/12/27 04:04:03;;;;;;;;;;;;;;;28.59;54.44;101391.69;5051590;28;70571;-34
2022/12/27 04:06:33;;;;;;;;;;;;;;;28.60;54.64;101393.34;5055815;28;65922;-36
2022/12/27 04:34:42;;;;;;;;;;;;;;;28.83;53.42;101338.28;5054364;28;66397;-36
2022/12/27 04:37:15;;;;;;;;;;;;;;;28.84;53.83;101332.72;5050858;28;69822;-35
2022/12/27 04:57:09;;;;;;;;;;;;;;;29.00;53.45;101293.75;5050855;28;65772;-40
2022/12/27 05:02:28;;;;;;;;;;;;;;;29.04;53.01;101294.25;5056924;28;65525;-38
2022/12/27 05:04:59;;;;;;;;;;;;;;;29.06;53.00;101294.84;5054294;28;71218;-40
2022/12/27 05:16:00;;;;;;;;;;;;;;;29.15;52.80;101278.31;5056834;28;70046;-38
2022/12/27 05:18:31;;;;;;;;;;;;;;;29.16;52.44;101271.03;5055678;28;65986;-35
2022/12/27 05:21:03;;;;;;;;;;;;;;;29.18;52.58;101260.88;5057049;28;69238;-37
2022/12/27 05:26:28;;;;;;;;;;;;;;;29.23;52.88;101253.00;5059873;28;70264;-37
2022/12/27 05:28:59;;;;;;;;;;;;;;;29.21;52.90;101255.06;5055272;28;66967;-39
2022/12/27 05:31:30;;;;;;;;;;;;;;;29.24;52.88;101243.84;5058726;28;70275;-38
2022/12/27 05:34:00;;;;;;;;;;;;;;;29.25;52.28;101234.69;5051406;28;67044;-37
2022/12/27 05:36:32;;;;;;;;;;;;;;;29.27;52.71;101238.03;5055244;28;70606;-34
2022/12/27 05:39:03;;;;;;;;;;;;;;;29.29;52.05;101224.34;5059286;28;67438;-35
2022/12/27 05:41:34;;;;;;;;;;;;;;;29.31;52.00;101228.50;5055073;28;70285;-36
2022/12/27 05:44:04;;;;;;;;;;;;;;;29.33;52.55;101220.19;5061219;28;66822;-36
2022/12/27 05:46:35;;;;;;;;;;;;;;;29.34;51.79;101211.91;5057053;28;69995;-36
2022/12/27 05:49:06;;;;;;;;;;;;;;;29.36;51.88;101199.03;5054029;28;66489;-39
2022/12/27 05:51:37;;;;;;;;;;;;;;;29.36;51.89;101199.03;5057493;28;68960;-36
2022/12/27 05:54:08;;;;;;;;;;;;;;;29.38;51.83;101202.34;5056132;28;66398;-36
2022/12/27 05:56:40;;;;;;;;;;;;;;;29.40;51.63;101200.28;5060501;28;71096;-35
2022/12/27 05:59:10;;;;;;;;;;;;;;;29.40;51.75;101194.88;5056719;28;65481;-37
2022/12/27 06:01:41;;;;;;;;;;;;;;;29.43;51.52;101187.41;5053434;28;70312;-38
2022/12/27 06:04:12;;;;;;;;;;;;;;;29.44;51.98;101183.66;5060200;28;66006;-36
2022/12/27 06:06:42;;;;;;;;;;;;;;;29.44;52.11;101173.66;5056521;28;69744;-35
2022/12/27 06:09:14;;;;;;;;;;;;;;;29.45;51.99;101169.09;5059197;28;66988;-35
2022/12/27 06:11:45;;;;;;;;;;;;;;;29.45;51.66;101158.28;5056762;28;69821;-36
2022/12/27 06:14:15;;;;;;;;;;;;;;;29.45;51.56;101163.69;5052792;28;65742;-36
2022/12/27 06:16:46;;;;;;;;;;;;;;;29.46;52.13;101154.56;5056994;28;69761;-35
2022/12/27 06:19:17;;;;;;;;;;;;;;;29.47;51.64;101145.41;5051299;28;65682;-35
2022/12/27 06:21:48;;;;;;;;;;;;;;;29.48;52.03;101152.50;5057593;28;70467;-34
2022/12/27 06:24:19;;;;;;;;;;;;;;;29.46;51.58;101149.16;5057421;28;66462;-34
2022/12/27 06:26:49;;;;;;;;;;;;;;;29.49;51.52;101140.63;5053809;28;70550;-36
2022/12/27 06:29:20;;;;;;;;;;;;;;;29.51;52.11;101133.16;5055165;28;66558;-36
2022/12/27 06:31:51;;;;;;;;;;;;;;;29.50;51.80;101134.19;5052818;28;70655;-34
2022/12/27 06:34:21;;;;;;;;;;;;;;;29.53;51.43;101133.75;5053870;28;66153;-37
2022/12/27 06:36:52;;;;;;;;;;;;;;;29.54;51.61;101124.63;5056429;28;69723;-37
2022/12/27 06:39:23;;;;;;;;;;;;;;;29.55;51.81;101127.13;5052081;28;65952;-36
2022/12/27 06:41:55;;;;;;;;;;;;;;;29.56;52.02;101111.72;5051693;28;69352;-34
2022/12/27 06:44:26;;;;;;;;;;;;;;;29.56;51.37;101114.44;5056398;28;66905;-34
2022/12/27 06:46:57;;;;;;;;;;;;;;;29.57;51.82;101102.59;5052196;28;70717;-34
2022/12/27 06:49:28;;;;;;;;;;;;;;;29.58;51.67;101104.25;5056498;28;65989;-35
2022/12/27 06:51:58;;;;;;;;;;;;;;;29.59;51.61;101103.22;5054996;28;70469;-35
2022/12/27 06:54:29;;;;;;;;;;;;;;;29.60;51.72;101107.59;5052761;28;66644;-36
2022/12/27 06:56:59;;;;;;;;;;;;;;;29.60;51.51;101100.31;5049146;28;69707;-35
2022/12/27 06:59:31;;;;;;;;;;;;;;;29.62;51.67;101086.59;5050543;28;66370;-37
2022/12/27 07:02:02;;;;;;;;;;;;;;;29.63;51.58;101085.56;5057789;28;69438;-35
2022/12/27 07:04:33;;;;;;;;;;;;;;;29.61;51.82;101083.06;5057557;28;66185;-36
2022/12/27 07:07:04;;;;;;;;;;;;;;;29.65;51.63;101079.97;5054999;28;70274;-37
2022/12/27 07:09:41;;;;;;;;;;;;;;;29.62;51.89;101068.50;5051335;28;66540;-37
2022/12/27 07:12:12;;;;;;;;;;;;;;;29.67;51.62;101076.03;5053714;28;70267;-34
2022/12/27 07:14:43;;;;;;;;;;;;;;;29.68;52.01;101074.16;5047948;28;67202;-34
2022/12/27 07:17:14;;;;;;;;;;;;;;;29.68;51.79;101072.28;5052350;28;69041;-35
2022/12/27 07:19:46;;;;;;;;;;;;;;;29.68;51.57;101072.28;5051884;28;66156;-38
2022/12/27 07:22:16;;;;;;;;;;;;;;;29.71;51.38;101063.75;5049482;28;69991;-34
2022/12/27 07:24:47;;;;;;;;;;;;;;;29.71;51.96;101061.03;5053153;28;66187;-34
2022/12/27 07:27:18;;;;;;;;;;;;;;;29.72;51.73;101049.19;5058285;28;69478;-34
2022/12/27 07:29:49;;;;;;;;;;;;;;;29.74;51.41;101047.09;5057517;28;66435;-35
2022/12/27 07:32:20;;;;;;;;;;;;;;;29.75;51.56;101040.66;5060112;28;70233;-34
2022/12/27 07:34:50;;;;;;;;;;;;;;;29.75;51.54;101046.06;5056003;28;66807;-35
2022/12/27 07:37:21;;;;;;;;;;;;;;;29.76;51.59;101042.31;5056911;28;70960;-34
2022/12/27 07:39:52;;;;;;;;;;;;;;;29.78;51.50;101042.97;5046812;28;66586;-35
2022/12/27 07:42:23;;;;;;;;;;;;;;;29.79;51.35;101031.09;5045071;28;69846;-35
2022/12/27 07:44:54;;;;;;;;;;;;;;;29.80;51.51;101032.75;5054023;28;65698;-35
2022/12/27 07:47:24;;;;;;;;;;;;;;;29.81;51.09;101033.56;5057308;28;69902;-34
2022/12/27 07:49:55;;;;;;;;;;;;;;;29.82;51.04;101038.78;5058776;28;66075;-34
2022/12/27 07:52:26;;;;;;;;;;;;;;;29.82;51.06;101044.19;5057326;28;70375;-35
2022/12/27 07:54:57;;;;;;;;;;;;;;;29.83;51.06;101039.59;5055645;28;65009;-35
2022/12/27 07:57:28;;;;;;;;;;;;;;;29.84;51.24;101030.47;5058327;28;70778;-35
2022/12/27 07:59:59;;;;;;;;;;;;;;;29.84;51.03;101023.19;5057446;28;66917;-34
2022/12/27 08:02:39;;;;;;;;;;;;;;;29.86;51.68;101024.84;5053825;28;70441;-35
2022/12/27 08:05:09;;;;;;;;;;;;;;;29.87;51.23;101031.94;5055229;28;65371;-34
2022/12/27 08:07:40;;;;;;;;;;;;;;;29.88;51.61;101033.59;5057412;28;70037;-35
2022/12/27 08:10:11;;;;;;;;;;;;;;;29.89;51.40;101030.66;5055411;28;65369;-37
2022/12/27 08:12:42;;;;;;;;;;;;;;;29.90;50.98;101031.50;5058456;28;70436;-34
2022/12/27 08:15:12;;;;;;;;;;;;;;;29.91;51.12;101030.44;5052803;28;66631;-34
2022/12/27 08:17:43;;;;;;;;;;;;;;;29.92;51.40;101034.81;5051971;28;69843;-34
2022/12/27 08:20:15;;;;;;;;;;;;;;;29.92;50.99;101040.22;5051580;28;66225;-34
2022/12/27 08:22:46;;;;;;;;;;;;;;;29.92;51.50;101041.06;5056100;28;69673;-35
2022/12/27 08:25:16;;;;;;;;;;;;;;;29.94;51.02;101043.56;5051650;28;66541;-34
2022/12/27 08:27:47;;;;;;;;;;;;;;;29.95;50.87;101042.50;5057572;28;69207;-35
2022/12/27 08:30:18;;;;;;;;;;;;;;;29.96;51.20;101038.78;5060513;28;65647;-34
2022/12/27 08:32:49;;;;;;;;;;;;;;;29.97;51.47;101037.72;5057085;28;69825;-34
2022/12/27 08:35:20;;;;;;;;;;;;;;;29.96;50.85;101036.06;5060012;28;65561;-36
2022/12/27 08:38:11;;;;;;;;;;;;;;;29.97;50.75;101043.13;5059255;28;70414;-35
2022/12/27 08:40:42;;;;;;;;;;;;;;;29.98;51.19;101050.22;5051203;28;65501;-35
2022/12/27 08:43:13;;;;;;;;;;;;;;;29.98;50.84;101044.81;5057553;28;69681;-35
2022/12/27 08:45:44;;;;;;;;;;;;;;;29.99;50.76;101049.16;5061768;28;66565;-34
2022/12/27 08:48:18;;;;;;;;;;;;;;;29.97;50.69;101048.53;5058455;28;43676;-35
2022/12/27 08:50:49;;;;;;;;;;;;;;;30.00;50.71;101050.81;5052287;28;65915;-38
2022/12/27 08:53:19;;;;;;;;;;;;;;;30.00;50.75;101048.94;5059058;28;70190;-34
2022/12/27 08:55:50;;;;;;;;;;;;;;;30.01;51.35;101049.78;5057370;28;65986;-35
2022/12/27 08:58:21;;;;;;;;;;;;;;;30.02;50.81;101054.16;5059133;28;68743;-35
2022/12/27 09:00:52;;;;;;;;;;;;;;;30.02;50.79;101057.69;5059822;28;66077;-35
2022/12/27 09:03:22;;;;;;;;;;;;;;;30.02;51.27;101056.84;5054767;28;69252;-40
2022/12/27 09:05:53;;;;;;;;;;;;;;;30.03;51.25;101063.91;5058136;28;66550;-39
2022/12/27 09:08:24;;;;;;;;;;;;;;;30.03;50.73;101064.78;5055206;28;69374;-37
2022/12/27 09:10:54;;;;;;;;;;;;;;;30.03;50.71;101074.75;5054364;28;66654;-38
2022/12/27 09:13:25;;;;;;;;;;;;;;;30.05;51.40;101067.25;5054635;28;69147;-34
2022/12/27 09:15:56;;;;;;;;;;;;;;;30.02;52.50;101073.91;5053633;28;65689;-37
2022/12/27 09:18:27;;;;;;;;;;;;;;;29.96;53.52;101079.34;5052472;28;70696;-37
2022/12/27 09:21:02;;;;;;;;;;;;;;;29.91;53.95;101081.84;5051396;28;67050;-39
2022/12/27 09:23:34;;;;;;;;;;;;;;;29.86;54.58;101089.75;5050957;28;70109;-37
2022/12/27 09:26:06;;;;;;;;;;;;;;;29.78;55.08;101083.53;5053592;28;66520;-39
2022/12/27 09:28:37;;;;;;;;;;;;;;;29.75;55.34;101092.00;5052725;28;70669;-40
2022/12/27 09:31:09;;;;;;;;;;;;;;;29.74;55.31;101089.53;5052791;28;66691;-36
2022/12/27 09:33:41;;;;;;;;;;;;;;;29.71;55.06;101093.50;5047327;28;68787;-37
2022/12/27 09:36:13;;;;;;;;;;;;;;;29.70;55.26;101097.25;5052525;28;67077;-34
2022/12/27 09:38:45;;;;;;;;;;;;;;;29.66;55.40;101106.78;5054420;28;69996;-36
2022/12/27 09:41:18;;;;;;;;;;;;;;;29.66;56.11;101106.78;5035478;28;66297;-36
2022/12/27 09:44:12;;;;;;;;;;;;;;;29.65;56.38;101099.72;5050332;28;70286;-35
2022/12/27 09:46:45;;;;;;;;;;;;;;;29.66;55.96;101112.19;5054579;28;67723;-38
2022/12/27 09:49:19;;;;;;;;;;;;;;;29.65;56.42;101115.94;5054699;28;69402;-37
2022/12/27 09:51:52;;;;;;;;;;;;;;;29.62;56.28;101121.75;5052184;28;64309;-34
2022/12/27 09:54:28;;;;;;;;;;;;;;;29.61;56.36;101123.63;5051517;28;70395;-35
2022/12/27 09:57:00;;;;;;;;;;;;;;;29.62;56.77;101119.03;5051502;28;66545;-35
2022/12/27 09:59:49;;;;;;;;;;;;;;;29.60;56.36;101121.09;5049603;28;69214;-36
2022/12/27 10:02:21;;;;;;;;;;;;;;;29.60;56.50;101126.50;5051372;28;66595;-36
2022/12/27 10:04:53;;;;;;;;;;;;;;;29.59;56.73;101122.97;5047488;28;70434;-34
2022/12/27 10:07:45;;;;;;;;;;;;;;;29.60;57.21;101134.63;5054749;28;66600;-36
2022/12/27 10:10:27;;;;;;;;;;;;;;;29.60;56.50;101127.34;5052357;28;70326;-34
2022/12/27 10:13:20;;;;;;;;;;;;;;;29.58;54.50;101136.69;5054434;28;66329;-37
2022/12/27 10:15:51;;;;;;;;;;;;;;;29.60;54.13;101134.63;5052531;28;70809;-37
2022/12/27 10:18:24;;;;;;;;;;;;;;;29.55;55.70;101137.09;5055927;28;65563;-33
2022/12/27 10:21:13;;;;;;;;;;;;;;;29.55;56.10;101134.41;5052373;28;71011;-36
2022/12/27 10:23:49;;;;;;;;;;;;;;;29.62;56.35;101144.19;5058312;28;66261;-33
2022/12/27 10:26:20;;;;;;;;;;;;;;;29.66;56.66;101139.22;5059048;28;70310;-35
2022/12/27 10:28:55;;;;;;;;;;;;;;;29.70;55.60;101135.09;5058727;28;66116;-34
2022/12/27 10:31:26;;;;;;;;;;;;;;;29.73;55.78;101147.38;5056747;28;69850;-34
2022/12/27 10:33:57;;;;;;;;;;;;;;;29.75;55.27;101137.97;5051852;28;66946;-34
2022/12/27 10:36:30;;;;;;;;;;;;;;;29.79;55.00;101149.25;5057336;28;69142;-34
2022/12/27 10:39:02;;;;;;;;;;;;;;;29.79;54.67;101150.06;5049880;28;65754;-34
2022/12/27 10:41:48;;;;;;;;;;;;;;;29.80;54.67;101154.44;5056505;28;69874;-34
2022/12/27 10:44:22;;;;;;;;;;;;;;;29.79;54.72;101155.47;5053618;28;65209;-34
2022/12/27 10:46:54;;;;;;;;;;;;;;;29.80;54.44;101151.72;5053962;28;70813;-36
2022/12/27 10:49:29;;;;;;;;;;;;;;;29.82;54.11;101154.22;5054637;28;66197;-37
2022/12/27 10:52:06;;;;;;;;;;;;;;;29.83;54.72;101154.00;5053413;28;70636;-37
2022/12/27 10:54:49;;;;;;;;;;;;;;;29.84;54.39;101160.28;5052445;28;66968;-36
2022/12/27 10:57:27;;;;;;;;;;;;;;;29.83;54.06;101162.13;5048878;28;69101;-38
2022/12/27 11:00:18;;;;;;;;;;;;;;;29.84;54.37;101169.22;5068866;27;67018;-38
2022/12/27 11:02:52;;;;;;;;;;;;;;;29.84;54.40;101169.22;5054952;28;69966;-39
2022/12/27 11:05:24;;;;;;;;;;;;;;;29.84;54.19;101163.81;5056266;28;65254;-38
2022/12/27 11:07:56;;;;;;;;;;;;;;;29.84;54.44;101180.03;5053457;28;71140;-36
2022/12/27 11:10:30;;;;;;;;;;;;;;;29.84;54.22;101180.03;5054094;28;66463;-35
2022/12/27 11:13:06;;;;;;;;;;;;;;;29.84;54.36;101190.84;5054843;28;69602;-37
2022/12/27 11:15:37;;;;;;;;;;;;;;;29.83;54.36;101185.63;5054308;28;66757;-35
2022/12/27 11:18:20;;;;;;;;;;;;;;;29.82;55.19;101187.50;5050959;28;70290;-36
2022/12/27 11:20:53;;;;;;;;;;;;;;;29.84;54.63;101190.84;5052352;28;66629;-38
2022/12/27 11:23:28;;;;;;;;;;;;;;;29.83;55.51;101194.56;5055898;28;70018;-36
2022/12/27 11:26:01;;;;;;;;;;;;;;;29.85;56.67;101197.09;5053755;28;66688;-39
2022/12/27 11:28:37;;;;;;;;;;;;;;;29.90;55.38;101200.00;5049492;28;69389;-35
2022/12/27 11:31:15;;;;;;;;;;;;;;;29.92;55.56;101202.50;5048401;28;66872;-35
2022/12/27 11:33:51;;;;;;;;;;;;;;;29.95;55.54;101207.47;5048711;28;69834;-35
2022/12/27 11:36:27;;;;;;;;;;;;;;;29.96;54.84;101209.16;5053208;28;65917;-36
2022/12/27 11:38:59;;;;;;;;;;;;;;;29.94;55.89;101211.25;5047273;28;70764;-34
2022/12/27 11:41:32;;;;;;;;;;;;;;;29.95;55.34;101207.47;5051898;28;66009;-35
2022/12/27 11:44:25;;;;;;;;;;;;;;;29.95;55.51;101212.91;5051260;28;69362;-37
2022/12/27 11:47:01;;;;;;;;;;;;;;;29.95;56.76;101212.91;5039123;28;65761;-36
2022/12/27 11:49:57;;;;;;;;;;;;;;;29.97;56.71;101216.25;5043215;28;70658;-34
2022/12/27 11:52:45;;;;;;;;;;;;;;;29.96;55.51;101226.22;5043742;28;66002;-41
2022/12/27 11:55:16;;;;;;;;;;;;;;;29.92;55.52;101219.56;5055144;28;71252;-39
2022/12/27 11:58:02;;;;;;;;;;;;;;;29.93;55.24;101237.47;5052383;28;67033;-38
2022/12/27 12:00:55;;;;;;;;;;;;;;;29.91;55.83;101233.28;5047381;28;70466;-37
2022/12/27 12:03:37;;;;;;;;;;;;;;;29.89;55.56;101232.66;5048081;28;66092;-35
2022/12/27 12:06:27;;;;;;;;;;;;;;;29.88;55.45;101239.13;5053353;28;70350;-35
2022/12/27 12:09:05;;;;;;;;;;;;;;;29.83;55.82;101243.25;5015182;28;66807;-37
2022/12/27 12:12:00;;;;;;;;;;;;;;;29.82;56.01;101251.59;5052870;28;69691;-36
2022/12/27 12:14:43;;;;;;;;;;;;;;;29.81;56.22;101252.59;5049950;28;67466;-35
2022/12/27 12:17:14;;;;;;;;;;;;;;;29.77;56.53;101264.88;5050131;28;71194;-36
2022/12/27 12:19:48;;;;;;;;;;;;;;;29.77;56.12;101263.00;5047631;28;66448;-35
2022/12/27 12:22:19;;;;;;;;;;;;;;;29.76;56.45;101264.06;5051543;28;70451;-35
2022/12/27 12:25:00;;;;;;;;;;;;;;;29.75;56.25;101267.78;5048368;28;67128;-35
2022/12/27 12:27:49;;;;;;;;;;;;;;;29.74;56.49;101276.94;5043982;28;70800;-36
2022/12/27 12:30:44;;;;;;;;;;;;;;;29.70;57.26;101278.38;5052491;28;66759;-40
2022/12/27 12:33:34;;;;;;;;;;;;;;;29.72;56.42;101288.97;5045031;28;70695;-37
2022/12/27 12:36:35;;;;;;;;;;;;;;;29.71;56.47;101293.56;5043640;28;66223;-35
2022/12/27 12:39:24;;;;;;;;;;;;;;;29.71;57.39;101292.75;5036936;28;70239;-36
2022/12/27 12:42:18;;;;;;;;;;;;;;;29.70;57.72;101291.91;5049573;28;67183;-36
2022/12/27 12:44:52;;;;;;;;;;;;;;;29.70;58.26;101297.31;5031935;28;70649;-38
2022/12/27 12:47:31;;;;;;;;;;;;;;;29.70;57.63;101296.47;5050070;28;65809;-40
2022/12/27 12:50:23;;;;;;;;;;;;;;;29.70;57.71;101302.72;5065057;28;70304;-37
2022/12/27 12:53:13;;;;;;;;;;;;;;;29.70;57.52;101304.56;5060447;27;65740;-38
2022/12/27 12:55:44;;;;;;;;;;;;;;;29.67;57.80;101305.84;5051565;28;70513;-41
2022/12/27 12:58:23;;;;;;;;;;;;;;;29.65;57.66;101301.66;5055575;28;66077;-38
2022/12/27 13:01:03;;;;;;;;;;;;;;;29.68;57.39;101309.38;5053487;28;69553;-39
2022/12/27 13:03:44;;;;;;;;;;;;;;;29.67;59.71;101313.09;5050857;28;66174;-38
2022/12/27 13:06:15;;;;;;;;;;;;;;;29.67;59.59;101313.09;5047957;28;69270;-35
2022/12/27 13:08:46;;;;;;;;;;;;;;;29.65;58.55;101318.72;5050460;28;67150;-36
2022/12/27 13:11:26;;;;;;;;;;;;;;;29.67;57.71;101322.06;5055242;28;70446;-36
2022/12/27 13:14:04;;;;;;;;;;;;;;;29.68;57.86;101320.19;5052604;28;66085;-38
2022/12/27 13:16:51;;;;;;;;;;;;;;;29.68;58.15;101326.41;5058617;28;70363;-38
2022/12/27 13:19:33;;;;;;;;;;;;;;;29.68;57.53;101331.81;5057216;28;65546;-40
2022/12/27 13:22:07;;;;;;;;;;;;;;;29.68;58.12;101334.53;5048481;28;69191;-36
2022/12/27 13:24:45;;;;;;;;;;;;;;;29.70;58.15;101335.16;5054202;28;66983;-39
2022/12/27 13:27:16;;;;;;;;;;;;;;;29.70;58.43;101335.16;5056060;28;69229;-36
2022/12/27 13:29:52;;;;;;;;;;;;;;;29.70;59.04;101345.13;5052452;28;66719;-36
2022/12/27 13:32:23;;;;;;;;;;;;;;;29.68;58.77;101348.03;5051937;28;69020;-39
2022/12/27 13:35:09;;;;;;;;;;;;;;;29.61;60.20;101353.41;5055260;28;66323;-37
2022/12/27 13:37:51;;;;;;;;;;;;;;;29.50;60.96;101339.59;5051658;28;69748;-35
2022/12/27 13:40:34;;;;;;;;;;;;;;;29.50;61.21;101355.81;5052924;28;65643;-35
2022/12/27 13:43:13;;;;;;;;;;;;;;;29.44;61.05;101356.63;5051338;28;69500;-36
2022/12/27 13:45:56;;;;;;;;;;;;;;;29.42;61.39;101358.69;5032552;28;66195;-41
2022/12/27 13:48:55;;;;;;;;;;;;;;;29.38;61.66;101359.06;5053278;28;69340;-39
2022/12/27 13:51:46;;;;;;;;;;;;;;;29.35;62.01;101364.88;5057570;28;66126;-40
2022/12/27 13:54:35;;;;;;;;;;;;;;;29.29;62.20;101356.75;5052102;28;70317;-41
2022/12/27 13:57:21;;;;;;;;;;;;;;;29.32;62.04;101359.88;5047076;28;66970;-42
2022/12/27 13:59:54;;;;;;;;;;;;;;;29.31;61.43;101362.75;5050165;28;69433;-38
2022/12/27 14:02:37;;;;;;;;;;;;;;;29.31;61.66;101363.63;5053162;28;66556;-39
2022/12/27 14:05:27;;;;;;;;;;;;;;;29.31;62.60;101369.03;5051599;28;70264;-40
2022/12/27 14:08:16;;;;;;;;;;;;;;;29.29;61.92;101371.09;5053865;28;66315;-39
2022/12/27 14:10:49;;;;;;;;;;;;;;;29.27;62.29;101373.16;5055922;28;70193;-40
2022/12/27 14:13:35;;;;;;;;;;;;;;;29.27;62.35;101373.16;5051633;28;66045;-36
2022/12/27 14:16:12;;;;;;;;;;;;;;;29.22;61.73;101370.19;5049632;28;70648;-41
2022/12/27 14:18:58;;;;;;;;;;;;;;;29.20;61.08;101374.13;5050377;28;66140;-41
2022/12/27 14:21:31;;;;;;;;;;;;;;;29.12;60.34;101370.56;5045902;28;70068;-41
2022/12/27 14:24:02;;;;;;;;;;;;;;;29.03;60.33;101371.75;5054991;28;66528;-37
2022/12/27 14:26:36;;;;;;;;;;;;;;;29.03;59.46;101376.25;5051456;28;70821;-35
2022/12/27 14:29:25;;;;;;;;;;;;;;;28.98;58.44;101379.56;5053487;28;66237;-40
2022/12/27 14:32:28;;;;;;;;;;;;;;;28.85;58.00;101369.47;5033871;28;69964;-37
2022/12/27 14:35:20;;;;;;;;;;;;;;;28.85;57.21;101387.53;5034036;28;66433;-38
2022/12/27 14:38:05;;;;;;;;;;;;;;;28.77;56.82;101377.72;5042165;28;70282;-38
2022/12/27 14:40:47;;;;;;;;;;;;;;;28.74;56.30;101378.09;5046959;28;65744;-41
2022/12/27 14:43:27;;;;;;;;;;;;;;;28.70;55.77;101376.84;5045286;28;69276;-38
2022/12/27 14:46:21;;;;;;;;;;;;;;;28.64;54.84;101373.03;5043162;28;66480;-40
2022/12/27 14:49:09;;;;;;;;;;;;;;;28.60;54.04;101376.31;5048042;28;70013;-38
2022/12/27 14:51:58;;;;;;;;;;;;;;;28.56;54.11;101375.03;5053113;28;67087;-41
2022/12/27 14:54:54;;;;;;;;;;;;;;;28.49;52.95;101365.00;5052355;28;70263;-41
2022/12/27 14:57:35;;;;;;;;;;;;;;;28.45;53.02;101377.22;5050819;27;65367;-40
2022/12/27 15:00:08;;;;;;;;;;;;;;;28.47;51.99;101368.91;5051479;28;70172;-41
2022/12/27 15:02:50;;;;;;;;;;;;;;;28.43;51.70;101371.16;5047318;28;66304;-39